Time;durP1;ratioP1;P1;durP2;ratioP2;P2;SDS_P1;SDS_P2;PMS_P1;PMS_P2;Temp;Humidity;BMP_temperature;BMP_pressure;BME280_temperature;BME280_humidity;BME280_pressure;Samples;Min_cycle;Max_cycle;Signal;HPM_P1;HPM_P2
2021/07/25 00:00:37;;;;;;;;;;;;;;;22.84;59.70;100899.31;4962532;28;19957;-73
2021/07/25 00:03:03;;;;;;;;;;;;;;;22.84;59.42;100901.97;4962363;28;19961;-72
2021/07/25 00:05:28;;;;;;;;;;;;;;;22.84;59.46;100895.81;4962802;28;20384;-72
2021/07/25 00:07:53;;;;;;;;;;;;;;;22.83;59.38;100889.69;4980318;28;20091;-72
2021/07/25 00:10:18;;;;;;;;;;;;;;;22.83;59.45;100891.44;4962626;28;19953;-72
2021/07/25 00:12:44;;;;;;;;;;;;;;;22.83;59.56;100889.69;4979621;28;19946;-72
2021/07/25 00:15:09;;;;;;;;;;;;;;;22.83;59.40;100889.69;4979649;28;20004;-72
2021/07/25 00:17:34;;;;;;;;;;;;;;;22.84;59.40;100898.44;4946250;28;19941;-72
2021/07/25 00:20:00;;;;;;;;;;;;;;;22.83;59.53;100908.13;4979455;28;19925;-72
2021/07/25 00:22:25;;;;;;;;;;;;;;;22.82;59.50;100898.47;4978695;28;19914;-72
2021/07/25 00:24:59;;;;;;;;;;;;;;;22.83;59.41;100886.16;4978744;28;19914;-72
2021/07/25 00:27:28;;;;;;;;;;;;;;;22.82;59.52;100880.03;4978291;28;20353;-72
2021/07/25 00:29:53;;;;;;;;;;;;;;;22.83;59.70;100870.34;4978128;28;19918;-72
2021/07/25 00:32:18;;;;;;;;;;;;;;;22.81;59.60;100867.75;4960904;28;19920;-71
2021/07/25 00:34:44;;;;;;;;;;;;;;;22.82;59.65;100855.44;4978639;28;19918;-72
2021/07/25 00:37:09;;;;;;;;;;;;;;;22.80;59.46;100856.31;4978785;28;19957;-73
2021/07/25 00:39:34;;;;;;;;;;;;;;;22.82;59.47;100850.16;4945539;28;20288;-72
2021/07/25 00:42:00;;;;;;;;;;;;;;;22.79;59.55;100849.31;4961668;28;19921;-72
2021/07/25 00:44:25;;;;;;;;;;;;;;;22.80;59.41;100848.41;4961301;28;19914;-74
2021/07/25 00:46:56;;;;;;;;;;;;;;;22.81;59.56;100846.66;4978855;28;19914;-72
2021/07/25 00:49:21;;;;;;;;;;;;;;;22.80;59.37;100850.19;4975993;28;20392;-72
2021/07/25 00:51:47;;;;;;;;;;;;;;;22.80;59.67;100847.56;4996606;28;19918;-72
2021/07/25 00:54:13;;;;;;;;;;;;;;;22.79;59.48;100849.31;4980525;28;19949;-72
2021/07/25 00:56:38;;;;;;;;;;;;;;;22.80;59.33;100844.91;4997772;28;19909;-72
2021/07/25 00:59:04;;;;;;;;;;;;;;;22.79;59.29;100838.78;4997786;28;20308;-75
2021/07/25 01:01:29;;;;;;;;;;;;;;;22.79;59.56;100843.19;4980236;28;19917;-72
2021/07/25 01:04:13;;;;;;;;;;;;;;;22.80;59.34;100835.22;4980109;28;19914;-74
2021/07/25 01:06:50;;;;;;;;;;;;;;;22.80;59.42;100839.63;4979496;28;20261;-72
2021/07/25 01:09:26;;;;;;;;;;;;;;;22.79;59.47;100837.91;4979094;28;20310;-72
2021/07/25 01:11:57;;;;;;;20.05;17.90;;;;;;;22.79;59.36;100844.03;4979313;28;19918;-72
2021/07/25 01:14:28;;;;;;;;;;;;;;;22.79;59.44;100848.44;4979508;28;20026;-72
2021/07/25 01:17:13;;;;;;;;;;;;;;;22.80;59.38;100850.19;4978877;28;19914;-71
2021/07/25 01:19:39;;;;;;;21.83;19.52;;;;;;;22.76;59.55;100841.47;4996224;28;19921;-72
2021/07/25 01:22:04;;;;;;;19.40;17.48;;;;;;;22.79;59.21;100849.31;4962370;28;20030;-71
2021/07/25 01:24:29;;;;;;;21.60;19.10;;;;;;;22.76;59.30;100841.47;4978536;28;20031;-71
2021/07/25 01:26:55;;;;;;;21.33;19.13;;;;;;;22.77;59.35;100845.84;4946539;28;20045;-72
2021/07/25 01:29:20;;;;;;;19.60;17.55;;;;;;;22.78;59.25;100851.97;4962506;28;20117;-72
2021/07/25 01:31:46;;;;;;;22.00;18.85;;;;;;;22.78;59.42;100852.84;4995922;28;20134;-72
2021/07/25 01:34:11;;;;;;;20.90;18.13;;;;;;;22.77;59.13;100845.84;4996011;28;20034;-72
2021/07/25 01:36:39;;;;;;;27.30;19.60;;;;;;;22.74;59.26;100835.31;4962584;28;20042;-72
2021/07/25 01:39:05;;;;;;;20.90;18.60;;;;;;;22.78;59.32;100839.66;4979122;28;20042;-72
2021/07/25 01:41:30;;;;;;;;;;;;;;;22.78;59.16;100839.66;4978597;28;20022;-72
2021/07/25 01:43:56;;;;;;;22.53;20.13;;;;;;;22.79;59.29;100837.91;4978284;28;19921;-73
2021/07/25 01:46:21;;;;;;;;;;;;;;;22.77;59.25;100830.03;4978521;28;20269;-72
2021/07/25 01:48:46;;;;;;;;;;;;;;;22.78;59.17;100825.63;4985584;28;19954;-72
2021/07/25 01:51:12;;;;;;;;;;;;;;;22.77;59.28;100816.84;4943027;28;19922;-72
2021/07/25 01:53:38;;;;;;;;;;;;;;;22.78;59.33;100812.44;4959125;28;19918;-72
2021/07/25 01:56:03;;;;;;;23.50;21.20;;;;;;;22.77;59.26;100805.44;4976339;28;20461;-72
2021/07/25 01:58:29;;;;;;;24.20;21.70;;;;;;;22.74;59.12;100808.97;4943213;28;20054;-73
2021/07/25 02:00:55;;;;;;;22.70;20.37;;;;;;;22.77;59.29;100811.56;4976147;28;20367;-72
2021/07/25 02:03:21;;;;;;;;;;;;;;;22.77;59.22;100810.69;4975844;28;20033;-72
2021/07/25 02:05:46;;;;;;;24.87;22.37;;;;;;;22.75;59.19;100813.34;4942679;28;19921;-72
2021/07/25 02:08:13;;;;;;;24.90;22.30;;;;;;;22.75;59.31;100815.97;4976110;28;20035;-72
2021/07/25 02:10:43;;;;;;;24.92;22.13;;;;;;;22.73;59.23;100816.91;4975680;28;20042;-72
2021/07/25 02:13:08;;;;;;;23.58;20.92;;;;;;;22.76;59.24;100817.75;4975716;28;20031;-72
2021/07/25 02:15:34;;;;;;;24.20;21.60;;;;;;;22.76;59.26;100812.47;4958714;28;20569;-72
2021/07/25 02:17:59;;;;;;;23.02;20.63;;;;;;;22.76;59.12;100814.25;4975539;28;20451;-72
2021/07/25 02:20:24;;;;;;;23.25;20.80;;;;;;;22.74;59.22;100808.09;4958238;28;20054;-72
2021/07/25 02:22:50;;;;;;;22.27;19.97;;;;;;;22.76;59.17;100807.19;4958387;28;20113;-72
2021/07/25 02:25:15;;;;;;;25.67;23.10;;;;;;;22.76;59.32;100799.28;4958470;28;20080;-72
2021/07/25 02:27:40;;;;;;;22.80;20.40;;;;;;;22.72;59.29;100786.19;4975733;28;20054;-72
2021/07/25 02:30:06;;;;;;;25.73;23.02;;;;;;;22.70;59.24;100786.22;4942049;28;20563;-72
2021/07/25 02:32:32;;;;;;;23.10;20.60;;;;;;;22.75;59.17;100788.75;4942272;28;20034;-72
2021/07/25 02:34:57;;;;;;;24.60;22.00;;;;;;;22.76;59.00;100795.78;4957921;28;20046;-72
2021/07/25 02:37:22;;;;;;;24.35;21.92;;;;;;;22.73;59.15;100786.13;4975387;28;20035;-72
2021/07/25 02:39:48;;;;;;;24.90;22.30;;;;;;;22.73;59.14;100790.53;4942112;28;20085;-72
2021/07/25 02:42:13;;;;;;;24.02;21.48;;;;;;;22.74;59.28;100779.97;4975344;28;20027;-72
2021/07/25 02:44:38;;;;;;;26.50;23.70;;;;;;;22.75;59.18;100779.06;4958149;28;20086;-72
2021/07/25 02:47:04;;;;;;;25.90;23.00;;;;;;;22.73;59.04;100770.31;4975367;28;20173;-72
2021/07/25 02:49:29;;;;;;;24.85;21.80;;;;;;;22.72;59.09;100765.13;4973996;28;20051;-72
2021/07/25 02:51:56;;;;;;;25.80;23.10;;;;;;;22.75;59.19;100768.50;4994666;28;20503;-72
2021/07/25 02:54:22;;;;;;;24.15;21.75;;;;;;;22.71;59.15;100755.47;4994557;28;20101;-72
2021/07/25 02:56:47;;;;;;;26.80;23.92;;;;;;;22.74;59.37;100766.78;4977304;28;20112;-72
2021/07/25 02:59:12;;;;;;;26.15;22.90;;;;;;;22.72;59.19;100760.69;4995052;28;20109;-72
2021/07/25 03:01:38;;;;;;;24.85;20.90;;;;;;;22.74;59.27;100752.72;4995179;28;20144;-72
2021/07/25 03:04:03;;;;;;;25.05;22.25;;;;;;;22.72;59.33;100754.56;4995697;28;20108;-72
2021/07/25 03:06:28;;;;;;;24.90;22.25;;;;;;;22.72;58.97;100751.94;4995074;28;20085;-72
2021/07/25 03:08:54;;;;;;;24.80;22.20;;;;;;;22.72;59.00;100760.69;4944972;28;20037;-72
2021/07/25 03:11:21;;;;;;;25.85;23.15;;;;;;;22.73;59.22;100753.63;4977264;28;20100;-72
2021/07/25 03:13:46;;;;;;;28.88;25.83;;;;;;;22.71;59.35;100752.81;4993776;28;20035;-72
2021/07/25 03:16:12;;;;;;;24.90;22.30;;;;;;;22.74;59.15;100753.59;4960861;28;20026;-71
2021/07/25 03:18:37;;;;;;;24.38;21.98;;;;;;;22.73;59.12;100751.88;4960642;28;20396;-71
2021/07/25 03:21:04;;;;;;;26.40;23.30;;;;;;;22.74;59.03;100750.97;4994320;28;20042;-71
2021/07/25 03:23:30;;;;;;;23.90;21.30;;;;;;;22.73;58.99;100743.09;4994248;28;20030;-72
2021/07/25 03:25:55;;;;;;;26.30;23.45;;;;;;;22.72;59.03;100736.13;4977231;28;20038;-71
2021/07/25 03:28:21;;;;;;;;;;;;;;;22.74;58.90;100742.19;4977135;28;20473;-72
2021/07/25 03:30:47;;;;;;;;;;;;;;;22.73;59.13;100730.78;4994122;28;19918;-71
2021/07/25 03:33:12;;;;;;;26.55;23.83;;;;;;;22.73;59.21;100743.97;4976499;28;20062;-71
2021/07/25 03:35:38;;;;;;;26.17;23.37;;;;;;;22.71;59.02;100729.09;4994058;28;20388;-71
2021/07/25 03:38:04;;;;;;;27.40;24.60;;;;;;;22.72;59.26;100738.75;4994115;28;20037;-72
2021/07/25 03:40:29;;;;;;;;;;;;;;;22.73;59.26;100749.22;4976817;28;20031;-72
2021/07/25 03:42:56;;;;;;;24.23;21.75;;;;;;;22.72;59.13;100749.28;4993841;28;19926;-71
2021/07/25 03:45:22;;;;;;;27.52;24.63;;;;;;;22.71;59.04;100752.81;4993951;28;20029;-71
2021/07/25 03:47:48;;;;;;;26.30;23.05;;;;;;;22.71;59.16;100747.56;4976081;28;20030;-71
2021/07/25 03:50:13;;;;;;;32.20;28.80;;;;;;;22.70;59.34;100745.81;4957300;28;20125;-72
2021/07/25 03:52:38;;;;;;;31.70;28.30;;;;;;;22.72;59.34;100752.75;4957154;28;20113;-72
2021/07/25 03:55:05;;;;;;;27.00;24.13;;;;;;;22.70;59.18;100757.22;4974457;28;20043;-71
2021/07/25 03:57:34;;;;;;;27.20;24.40;;;;;;;22.71;59.24;100756.34;4957203;28;20041;-72
2021/07/25 04:00:00;;;;;;;30.02;26.38;;;;;;;22.71;59.47;100761.59;4974450;28;20027;-71
2021/07/25 04:02:25;;;;;;;27.90;25.00;;;;;;;22.72;59.22;100750.13;4957060;28;20366;-72
2021/07/25 04:04:50;;;;;;;27.27;24.38;;;;;;;22.72;59.17;100752.75;4941030;28;20035;-72
2021/07/25 04:07:16;;;;;;;29.95;26.75;;;;;;;22.71;59.41;100758.97;4941102;28;20042;-72
2021/07/25 04:09:41;;;;;;;29.40;26.20;;;;;;;22.72;59.41;100754.56;4974180;28;20039;-72
2021/07/25 04:12:07;;;;;;;32.45;28.88;;;;;;;22.72;59.28;100755.41;4974084;28;20046;-72
2021/07/25 04:14:32;;;;;;;31.27;27.73;;;;;;;22.71;59.18;100750.19;4974302;28;20031;-72
2021/07/25 04:16:58;;;;;;;30.33;27.27;;;;;;;22.71;59.22;100758.09;4956924;28;20081;-72
2021/07/25 04:19:23;;;;;;;35.10;26.90;;;;;;;22.71;59.17;100753.69;4941362;28;20054;-72
2021/07/25 04:21:49;;;;;;;28.38;25.40;;;;;;;22.72;59.07;100757.19;4974213;28;20085;-72
2021/07/25 04:24:14;;;;;;;26.80;23.95;;;;;;;22.72;59.03;100754.56;4957186;28;20038;-72
2021/07/25 04:26:40;;;;;;;26.23;23.52;;;;;;;22.68;58.99;100752.91;4977095;28;20030;-72
2021/07/25 04:29:06;;;;;;;27.23;24.30;;;;;;;22.71;59.02;100755.47;4977907;28;20449;-72
2021/07/25 04:31:32;;;;;;;28.85;25.55;;;;;;;22.69;58.93;100755.50;4977710;28;20035;-72
2021/07/25 04:33:59;;;;;;;28.15;25.15;;;;;;;22.70;58.95;100754.59;4960309;28;20105;-72
2021/07/25 04:36:25;;;;;;;26.67;23.88;;;;;;;22.72;58.91;100762.47;4945168;28;20051;-72
2021/07/25 04:38:52;;;;;;;26.20;23.50;;;;;;;22.73;58.78;100758.91;4944610;28;20034;-72
2021/07/25 04:41:22;;;;;;;27.67;24.75;;;;;;;22.72;58.89;100758.03;4960344;28;20018;-72
2021/07/25 04:43:50;;;;;;;27.40;24.33;;;;;;;22.70;58.80;100754.59;4977503;28;20165;-72
2021/07/25 04:46:22;;;;;;;25.95;23.25;;;;;;;22.73;58.68;100765.03;4961160;28;20031;-72
2021/07/25 04:49:10;;;;;;;26.65;23.88;;;;;;;22.73;58.62;100764.19;4977414;28;20059;-72
2021/07/25 04:51:40;;;;;;;27.52;24.65;;;;;;;22.73;58.65;100770.31;4959826;28;20465;-72
2021/07/25 04:54:08;;;;;;;28.27;25.35;;;;;;;22.71;58.71;100763.38;4959987;28;20039;-72
2021/07/25 04:57:04;;;;;;;26.90;24.17;;;;;;;22.73;58.69;100769.44;4977121;28;20042;-72
2021/07/25 04:59:49;;;;;;;25.85;23.05;;;;;;;22.73;58.67;100765.03;4976058;28;20370;-72
2021/07/25 05:02:17;;;;;;;26.10;23.42;;;;;;;22.74;58.61;100771.19;4944268;28;20496;-72
2021/07/25 05:04:46;;;;;;;25.20;22.67;;;;;;;22.73;58.65;100769.44;4959543;28;20047;-72
2021/07/25 05:07:12;;;;;;;28.33;24.58;;;;;;;22.72;58.75;100770.38;4959416;28;20038;-72
2021/07/25 05:09:39;;;;;;;27.92;24.65;;;;;;;22.71;58.57;100773.91;4959425;28;20031;-72
2021/07/25 05:12:18;;;;;;;26.02;23.23;;;;;;;22.73;58.70;100765.03;4943530;28;20033;-72
2021/07/25 05:15:04;;;;;;;26.83;24.00;;;;;;;22.75;58.61;100775.56;4959538;28;20027;-72
2021/07/25 05:17:32;;;;;;;27.33;24.42;;;;;;;22.75;58.43;100776.44;4976743;28;20027;-72
2021/07/25 05:20:05;;;;;;;23.77;21.27;;;;;;;22.74;58.54;100772.06;4959449;28;20501;-72
2021/07/25 05:22:53;;;;;;;25.40;22.85;;;;;;;22.76;58.42;100782.59;4976567;28;20030;-72
2021/07/25 05:25:20;;;;;;;25.80;23.15;;;;;;;22.70;58.55;100769.53;4959047;28;20029;-72
2021/07/25 05:27:48;;;;;;;37.35;31.92;;;;;;;22.70;58.45;100788.00;4959012;28;20121;-73
2021/07/25 05:30:16;;;;;;;42.97;34.45;;;;;;;22.59;58.54;100764.50;4958966;28;20039;-72
2021/07/25 05:32:41;;;;;;;43.50;33.83;;;;;;;22.57;58.62;100768.09;4976137;28;20022;-72
2021/07/25 05:35:08;;;;;;;46.75;41.33;;;;;;;22.50;59.03;100770.00;4959141;28;20464;-71
2021/07/25 05:37:33;;;;;;;49.65;40.90;;;;;;;22.30;60.38;100765.19;4975633;28;20422;-72
2021/07/25 05:39:59;;;;;;;52.63;45.42;;;;;;;22.25;60.45;100772.31;4976148;28;20101;-72
2021/07/25 05:42:24;;;;;;;56.40;45.88;;;;;;;22.26;60.86;100775.81;4959011;28;20030;-72
2021/07/25 05:44:50;;;;;;;61.33;49.15;;;;;;;22.26;61.02;100784.56;4976246;28;20377;-72
2021/07/25 05:47:15;;;;;;;55.70;46.60;;;;;;;22.28;61.01;100781.91;4958757;28;20089;-72
2021/07/25 05:49:40;;;;;;;64.45;53.28;;;;;;;22.04;62.12;100784.19;4975906;28;20057;-72
2021/07/25 05:52:06;;;;;;;63.20;49.35;;;;;;;21.89;62.66;100773.91;4958525;28;20494;-71
2021/07/25 05:54:32;;;;;;;68.18;53.63;;;;;;;21.83;63.37;100774.03;4975940;28;20109;-72
2021/07/25 05:56:57;;;;;;;66.60;54.20;;;;;;;21.83;63.57;100773.16;4958636;28;20057;-72
2021/07/25 05:59:23;;;;;;;66.22;53.17;;;;;;;21.74;63.65;100759.28;4958634;28;20492;-72
2021/07/25 06:01:48;;;;;;;70.72;54.67;;;;;;;21.76;63.84;100759.25;4942528;28;20390;-72
2021/07/25 06:04:14;;;;;;;67.93;54.13;;;;;;;21.83;63.70;100762.63;4958471;28;20038;-72
2021/07/25 06:06:39;;;;;;;67.68;54.47;;;;;;;21.91;63.73;100760.72;4942666;28;20027;-72
2021/07/25 06:09:07;;;;;;;63.67;50.25;;;;;;;21.89;63.71;100760.75;4958393;28;20043;-72
2021/07/25 06:11:33;;;;;;;64.95;51.60;;;;;;;21.95;63.66;100771.13;4942375;28;20027;-72
2021/07/25 06:13:58;;;;;;;63.83;51.75;;;;;;;21.96;63.59;100774.63;4975456;28;20141;-72
2021/07/25 06:16:24;;;;;;;61.42;51.60;;;;;;;21.97;63.34;100774.63;4958348;28;20034;-72
2021/07/25 06:18:49;;;;;;;60.85;50.17;;;;;;;22.04;63.13;100772.78;4958142;28;20047;-72
2021/07/25 06:21:16;;;;;;;63.63;51.15;;;;;;;22.13;63.14;100780.47;4958130;28;20042;-72
2021/07/25 06:23:42;;;;;;;60.28;48.47;;;;;;;22.23;63.02;100786.41;4975383;28;20030;-72
2021/07/25 06:26:07;;;;;;;57.75;46.30;;;;;;;22.28;62.77;100788.06;4958100;28;20141;-72
2021/07/25 06:28:32;;;;;;;56.10;46.78;;;;;;;22.23;63.07;100789.91;4958067;28;20055;-72
2021/07/25 06:30:58;;;;;;;60.10;46.90;;;;;;;22.18;62.78;100783.00;4957847;28;20042;-73
2021/07/25 06:33:24;;;;;;;51.90;43.88;;;;;;;22.12;63.15;100781.38;4975202;28;20034;-72
2021/07/25 06:35:50;;;;;;;57.55;46.97;;;;;;;22.12;62.84;100781.38;4941978;28;20038;-72
2021/07/25 06:38:18;;;;;;;51.92;44.17;;;;;;;22.09;62.96;100786.69;4975245;28;20027;-72
2021/07/25 06:40:46;;;;;;;56.10;43.22;;;;;;;22.05;63.06;100777.13;4975112;28;20117;-72
2021/07/25 06:43:12;;;;;;;46.72;40.92;;;;;;;22.04;62.65;100778.91;4974939;28;20358;-72
2021/07/25 06:45:38;;;;;;;50.25;39.28;;;;;;;22.19;62.28;100785.63;4957908;28;20045;-73
2021/07/25 06:48:03;;;;;;;43.22;38.42;;;;;;;22.29;62.01;100784.53;4957523;28;20062;-72
2021/07/25 06:50:31;;;;;;;46.15;38.17;;;;;;;22.35;61.77;100783.50;4941584;28;20394;-74
2021/07/25 06:52:57;;;;;;;49.65;40.67;;;;;;;22.39;62.06;100780.78;4974924;28;20058;-72
2021/07/25 06:55:25;;;;;;;49.33;39.10;;;;;;;22.47;62.05;100783.22;4941732;28;20042;-73
2021/07/25 06:57:51;;;;;;;44.08;39.25;;;;;;;22.45;62.06;100783.28;4974896;28;20027;-72
2021/07/25 07:00:17;;;;;;;48.08;38.47;;;;;;;22.46;61.94;100785.00;4957827;28;20037;-72
2021/07/25 07:02:52;;;;;;;46.47;35.85;;;;;;;22.45;62.15;100785.06;4975007;28;20026;-72
2021/07/25 07:05:20;;;;;;;48.85;39.10;;;;;;;22.51;61.80;100779.63;4957631;28;20039;-72
2021/07/25 07:07:48;;;;;;;45.45;35.45;;;;;;;22.55;61.50;100781.31;4957366;28;20382;-72
2021/07/25 07:10:18;;;;;;;38.95;31.92;;;;;;;22.54;61.50;100783.97;4957211;28;20104;-72
2021/07/25 07:12:44;;;;;;;38.63;29.02;;;;;;;22.53;61.27;100787.50;4957245;28;20117;-72
2021/07/25 07:15:11;;;;;;;40.08;29.25;;;;;;;22.54;61.03;100789.25;4957283;28;20448;-73
2021/07/25 07:17:38;;;;;;;31.13;25.00;;;;;;;22.56;60.92;100790.94;4975640;28;20027;-72
2021/07/25 07:20:06;;;;;;;27.65;24.65;;;;;;;22.61;60.62;100791.69;4958519;28;20023;-71
2021/07/25 07:22:31;;;;;;;27.83;23.40;;;;;;;22.70;60.28;100796.78;4958223;28;20027;-72
2021/07/25 07:24:57;;;;;;;27.42;22.35;;;;;;;22.79;59.87;100801.00;4975517;28;20045;-72
2021/07/25 07:27:26;;;;;;;25.38;19.70;;;;;;;22.75;59.59;100788.75;4977849;28;20038;-72
2021/07/25 07:29:53;;;;;;;27.42;18.38;;;;;;;22.76;59.42;100796.66;4961026;28;20030;-72
2021/07/25 07:32:19;;;;;;;19.67;16.90;;;;;;;22.63;59.48;100795.16;4961342;28;20031;-74
2021/07/25 07:34:44;;;;;;;20.85;17.50;;;;;;;22.58;59.39;100791.78;4979498;28;20031;-73
2021/07/25 07:37:16;;;;;;;19.25;16.55;;;;;;;22.66;59.13;100802.16;4962389;28;20482;-73
2021/07/25 07:39:45;;;;;;;22.15;16.83;;;;;;;22.62;59.33;100813.66;4963208;28;20031;-75
2021/07/25 07:42:11;;;;;;;21.90;16.02;;;;;;;22.58;59.36;100817.28;4962727;28;20381;-73
2021/07/25 07:44:41;;;;;;;19.75;15.63;;;;;;;22.51;59.58;100813.03;4945900;28;20062;-72
2021/07/25 07:47:07;;;;;;;21.50;16.88;;;;;;;22.48;59.37;100821.00;4961978;28;20091;-72
2021/07/25 07:49:32;;;;;;;19.58;14.75;;;;;;;22.44;59.56;100830.75;4977820;28;20090;-72
2021/07/25 07:51:57;;;;;;;20.48;14.88;;;;;;;22.29;59.60;100823.16;4960317;28;20034;-72
2021/07/25 07:54:23;;;;;;;18.63;15.68;;;;;;;22.26;59.47;100824.09;4977349;28;20412;-72
2021/07/25 07:56:51;;;;;;;17.75;13.77;;;;;;;22.38;59.26;100818.56;4977166;28;20054;-72
2021/07/25 07:59:16;;;;;;;21.73;14.90;;;;;;;22.41;59.43;100831.69;4960314;28;20035;-72
2021/07/25 08:01:44;;;;;;;17.02;14.68;;;;;;;22.33;59.68;100828.31;4963086;28;20037;-72
2021/07/25 08:04:09;;;;;;;17.50;12.52;;;;;;;22.32;59.69;100829.25;4948161;28;20030;-72
2021/07/25 08:06:35;;;;;;;18.38;13.55;;;;;;;22.30;59.88;100836.31;4962481;28;20043;-72
2021/07/25 08:09:00;;;;;;;21.52;14.35;;;;;;;22.26;59.82;100839.03;4977939;28;20062;-72
2021/07/25 08:11:25;;;;;;;17.60;12.93;;;;;;;22.27;59.82;100832.88;4960527;28;20370;-72
2021/07/25 08:13:51;;;;;;;22.25;15.40;;;;;;;22.30;59.44;100843.34;4977872;28;20034;-72
2021/07/25 08:16:16;;;;;;;21.20;14.48;;;;;;;22.28;59.61;100848.66;4960648;28;20035;-72
2021/07/25 08:18:41;;;;;;;17.73;14.70;;;;;;;22.28;59.91;100846.00;4977623;28;20050;-74
2021/07/25 08:21:07;;;;;;;45.13;16.65;;;;;;;22.30;59.83;100848.63;4960610;28;20041;-72
2021/07/25 08:23:33;;;;;;;19.27;15.27;;;;;;;22.21;60.02;100844.38;4944332;28;20035;-72
2021/07/25 08:25:59;;;;;;;17.88;13.98;;;;;;;22.06;60.57;100848.22;4977546;28;20478;-72
2021/07/25 08:28:27;;;;;;;19.17;16.20;;;;;;;22.01;60.75;100843.94;4945294;28;20038;-72
2021/07/25 08:30:52;;;;;;;18.25;15.27;;;;;;;21.99;60.76;100854.47;4963397;28;20054;-72
2021/07/25 08:33:18;;;;;;;18.17;16.00;;;;;;;22.03;61.02;100853.53;4963473;28;20038;-73
2021/07/25 08:35:46;;;;;;;17.27;14.55;;;;;;;22.08;61.21;100862.19;4962392;28;20030;-72
2021/07/25 08:38:13;;;;;;;18.42;13.68;;;;;;;22.22;60.64;100866.31;4963180;28;20049;-71
2021/07/25 08:40:46;;;;;;;23.73;15.25;;;;;;;22.02;62.24;100853.56;4946276;28;20069;-72
2021/07/25 08:43:13;;;;;;;22.80;14.65;;;;;;;22.15;62.07;100862.09;4962691;28;20026;-72
2021/07/25 08:45:40;;;;;;;18.25;13.93;;;;;;;22.13;62.40;100861.25;4980167;28;20114;-72
2021/07/25 08:48:17;;;;;;;28.52;25.23;;;;;;;22.18;62.50;100872.56;4981923;28;20141;-72
2021/07/25 08:50:49;;;;;;;24.65;18.90;;;;;;;22.03;63.47;100871.09;4962392;28;20117;-72
2021/07/25 08:53:18;;;;;;;21.63;17.30;;;;;;;22.16;62.89;100877.00;4962072;28;20433;-72
2021/07/25 08:55:45;;;;;;;19.42;15.85;;;;;;;22.26;62.71;100868.88;4962050;28;20031;-70
2021/07/25 08:58:12;;;;;;;24.40;15.55;;;;;;;22.40;62.30;100874.72;4946096;28;20107;-72
2021/07/25 09:00:38;;;;;;;25.63;18.25;;;;;;;22.42;62.25;100877.34;4930998;28;20047;-72
2021/07/25 09:03:06;;;;;;;25.35;18.80;;;;;;;22.32;62.66;100871.41;4962073;28;20039;-72
2021/07/25 09:05:32;;;;;;;21.67;18.42;;;;;;;22.36;62.56;100874.81;4945883;28;20134;-72
2021/07/25 09:07:58;;;;;;;26.92;19.70;;;;;;;22.33;62.72;100877.53;4962158;28;20038;-72
2021/07/25 09:10:24;;;;;;;22.92;19.90;;;;;;;22.32;62.52;100876.66;4960612;28;20065;-72
2021/07/25 09:12:51;;;;;;;22.85;18.10;;;;;;;22.30;63.33;100864.41;4942576;28;20516;-72
2021/07/25 09:15:20;;;;;;;23.95;19.23;;;;;;;22.34;63.17;100866.94;4976859;28;20544;-72
2021/07/25 09:17:48;;;;;;;28.35;20.92;;;;;;;22.30;63.34;100864.41;4959465;28;20037;-73
2021/07/25 09:20:13;;;;;;;28.33;22.23;;;;;;;22.36;63.63;100880.09;4977037;28;20031;-73
2021/07/25 09:22:56;;;;;;;25.90;21.65;;;;;;;22.42;63.38;100874.72;4976807;28;20053;-72
2021/07/25 09:25:21;;;;;;;21.45;18.42;;;;;;;22.43;63.72;100879.09;4959364;28;20038;-73
2021/07/25 09:27:55;;;;;;;24.73;21.15;;;;;;;22.41;63.80;100872.97;4959219;28;20031;-72
2021/07/25 09:30:21;;;;;;;26.05;21.35;;;;;;;22.51;63.43;100865.72;4959070;28;20600;-72
2021/07/25 09:32:49;;;;;;;24.90;19.98;;;;;;;22.58;63.23;100864.72;4959244;28;20122;-71
2021/07/25 09:35:32;;;;;;;23.17;20.52;;;;;;;22.17;64.74;100857.66;4959571;28;20031;-72
2021/07/25 09:38:10;;;;;;;26.02;20.20;;;;;;;22.20;65.17;100860.25;4958991;28;20548;-72
2021/07/25 09:40:37;;;;;;;24.70;20.05;;;;;;;22.23;64.50;100865.44;4958890;28;20504;-72
2021/07/25 09:43:14;;;;;;;27.20;21.13;;;;;;;22.31;64.38;100867.03;4959010;28;20355;-72
2021/07/25 09:45:54;;;;;;;26.73;20.80;;;;;;;22.39;64.37;100861.59;4959002;28;20504;-73
2021/07/25 09:48:33;;;;;;;27.13;19.70;;;;;;;22.53;63.59;100862.16;4960058;28;20031;-72
2021/07/25 09:51:19;;;;;;;29.13;19.98;;;;;;;22.59;63.83;100863.81;4995585;28;20046;-72
2021/07/25 09:53:50;;;;;;;31.80;17.92;;;;;;;22.63;62.92;100870.75;4978019;28;20461;-71
2021/07/25 09:56:20;;;;;;;30.00;20.67;;;;;;;22.63;62.85;100868.97;4978485;28;20069;-70
2021/07/25 09:58:46;;;;;;;23.58;18.85;;;;;;;22.63;62.61;100868.97;4977999;28;20032;-71
2021/07/25 10:01:35;;;;;;;24.30;18.20;;;;;;;22.77;63.49;100861.66;4977930;28;20030;-73
2021/07/25 10:04:09;;;;;;;;;;;;;;;22.83;62.53;100870.34;4978064;28;20037;-72
2021/07/25 10:06:38;;;;;;;;;;;;;;;22.87;62.65;100864.94;4995526;28;19925;-71
2021/07/25 10:09:07;;;;;;;;;;;;;;;22.87;62.44;100857.03;4995786;28;19968;-71
2021/07/25 10:11:32;;;;;;;;;;;;;;;22.87;62.41;100862.31;4995582;28;19918;-71
2021/07/25 10:13:59;;;;;;;17.27;14.40;;;;;;;22.81;62.45;100857.19;4961639;28;19925;-71
2021/07/25 10:16:24;;;;;;;;;;;;;;;22.68;61.45;100860.97;4962043;28;20605;-71
2021/07/25 10:18:52;;;;;;;30.52;21.13;;;;;;;22.57;61.45;100855.06;4961270;28;19957;-71
2021/07/25 10:21:19;;;;;;;24.77;18.33;;;;;;;22.55;61.40;100851.59;4994796;28;20034;-71
2021/07/25 10:23:52;;;;;;;25.20;18.85;;;;;;;22.61;60.89;100856.72;4994499;28;20037;-72
2021/07/25 10:26:18;;;;;;;;;;;;;;;22.48;61.31;100852.63;4995235;28;20022;-71
2021/07/25 10:28:43;;;;;;;;;;;;;;;22.44;61.78;100852.69;4995220;28;19956;-74
2021/07/25 10:31:09;;;;;;;;;;;;;;;22.56;61.44;100856.84;4978179;28;19954;-71
2021/07/25 10:33:36;;;;;;;25.13;19.42;;;;;;;22.61;61.95;100859.34;4977906;28;19909;-74
2021/07/25 10:36:05;;;;;;;19.55;17.10;;;;;;;22.73;61.65;100857.31;4979557;28;20042;-72
2021/07/25 10:38:30;;;;;;;;;;;;;;;22.87;61.56;100857.03;4977589;28;20480;-72
2021/07/25 10:40:57;;;;;;;23.77;19.90;;;;;;;22.76;60.86;100854.66;4994617;28;19964;-71
2021/07/25 10:43:25;;;;;;;24.40;20.40;;;;;;;22.79;61.35;100859.00;4977945;28;20340;-73
2021/07/25 10:46:09;;;;;;;;;;;;;;;22.83;61.54;100858.03;4994998;28;20490;-72
2021/07/25 10:48:34;;;;;;;27.63;18.60;;;;;;;22.82;61.23;100865.97;4994062;28;19913;-72
2021/07/25 10:51:10;;;;;;;22.10;18.08;;;;;;;22.88;61.15;100871.09;4957920;28;20042;-71
2021/07/25 10:53:35;;;;;;;;;;;;;;;22.88;61.36;100871.97;4975472;28;19914;-71
2021/07/25 10:56:00;;;;;;;22.00;18.50;;;;;;;22.84;61.87;100867.69;4975806;28;19973;-71
2021/07/25 10:58:27;;;;;;;;;;;;;;;22.84;61.36;100866.81;4942526;28;20278;-71
2021/07/25 11:00:53;;;;;;;;;;;;;;;22.82;61.38;100865.97;4975722;28;20388;-72
2021/07/25 11:03:25;;;;;;;24.85;20.10;;;;;;;22.83;61.46;100865.06;4974991;28;19920;-71
2021/07/25 11:05:59;;;;;;;;;;;;;;;22.82;61.52;100861.56;4976222;28;20101;-73
2021/07/25 11:08:45;;;;;;;;;;;;;;;22.82;61.29;100860.69;4975604;28;19921;-71
2021/07/25 11:11:26;;;;;;;;;;;;;;;22.83;61.40;100857.16;4974832;28;19924;-73
2021/07/25 11:13:52;;;;;;;;;;;;;;;22.80;61.53;100860.72;4957825;28;20377;-71
2021/07/25 11:16:29;;;;;;;25.08;21.42;;;;;;;22.80;61.69;100863.38;4957454;28;19918;-71
2021/07/25 11:19:23;;;;;;;25.80;21.02;;;;;;;22.80;61.97;100863.38;4974724;28;20042;-71
2021/07/25 11:21:53;;;;;;;25.45;20.90;;;;;;;22.82;61.90;100858.06;4974448;28;20485;-71
2021/07/25 11:24:18;;;;;;;24.73;19.25;;;;;;;22.85;61.43;100855.38;4942689;28;20086;-71
2021/07/25 11:26:54;;;;;;;;;;;;;;;22.66;61.75;100857.50;4974759;28;20019;-71
2021/07/25 11:29:19;;;;;;;;;;;;;;;22.62;61.76;100864.59;4958059;28;19956;-71